KBCB/BCB METAR and TAF weather

Enter ICAO airport designator
Station Type Date Time Source
KBCB METAR 2019/08/24 08:55 UTC NOAA

KBCB 240855Z AUTO 06004KT 10SM BKN024 BKN055 OVC070 16/16 A3018 RMK AO2 60002 T01600159


Station Type Date Time Source
KBCB Decoded METAR 2019/08/24 08:55 UTC NOAA

Station name not available
Aug 24, 2019 - 04:55 AM EDT / 2019.08.24 0855 UTC
Wind: from the ENE (060 degrees) at 5 MPH (4 KT):0
Visibility: 10 mile(s):0
Sky conditions: overcast
Temperature: 60.8 F (16.0 C)
Dew Point: 60.6 F (15.9 C)
Relative Humidity: 99%
Pressure (altimeter): 30.18 in. Hg (1022 hPa)
ob: KBCB 240855Z AUTO 06004KT 10SM BKN024 BKN055 OVC070 16/16 A3018 RMK AO2 60002 T01600159
cycle: 9

Station Type Date Time Source
KBCB TAF 2019/08/24 06:42 UTC NOAA

TAF KBCB 240541Z 2406/2506 10008KT 5SM -RA BR OVC004
FM241500 09005KT P6SM OVC015
FM242200 07005KT P6SM BKN035

Example: see airport list